sensor_id;sensor_type;location;lat;lon;timestamp;temperature;humidity
48744;DHT22;34538;48.836;9.174;2023-06-14T00:02:25;13.70;93.00
48744;DHT22;34538;48.836;9.174;2023-06-14T00:04:52;13.70;93.50
48744;DHT22;34538;48.836;9.174;2023-06-14T00:07:33;13.70;93.50
48744;DHT22;34538;48.836;9.174;2023-06-14T00:10:01;13.60;93.20
48744;DHT22;34538;48.836;9.174;2023-06-14T00:12:28;13.60;93.60
48744;DHT22;34538;48.836;9.174;2023-06-14T00:14:55;13.60;92.90
48744;DHT22;34538;48.836;9.174;2023-06-14T00:17:21;13.60;92.80
48744;DHT22;34538;48.836;9.174;2023-06-14T00:19:49;13.50;93.60
48744;DHT22;34538;48.836;9.174;2023-06-14T00:22:15;13.50;93.70
48744;DHT22;34538;48.836;9.174;2023-06-14T00:24:44;13.50;93.80
48744;DHT22;34538;48.836;9.174;2023-06-14T00:27:10;13.40;94.30
48744;DHT22;34538;48.836;9.174;2023-06-14T00:29:37;13.30;94.40
48744;DHT22;34538;48.836;9.174;2023-06-14T00:32:05;13.30;94.80
48744;DHT22;34538;48.836;9.174;2023-06-14T00:34:32;13.20;94.60
48744;DHT22;34538;48.836;9.174;2023-06-14T00:36:59;13.20;94.70
48744;DHT22;34538;48.836;9.174;2023-06-14T00:39:26;13.20;94.70
48744;DHT22;34538;48.836;9.174;2023-06-14T00:41:56;13.10;95.00
48744;DHT22;34538;48.836;9.174;2023-06-14T00:44:23;13.10;95.00
48744;DHT22;34538;48.836;9.174;2023-06-14T00:46:50;13.00;95.10
48744;DHT22;34538;48.836;9.174;2023-06-14T00:49:17;13.00;94.90
48744;DHT22;34538;48.836;9.174;2023-06-14T00:51:45;13.00;94.90
48744;DHT22;34538;48.836;9.174;2023-06-14T00:54:12;13.00;95.20
48744;DHT22;34538;48.836;9.174;2023-06-14T00:56:39;12.90;95.30
48744;DHT22;34538;48.836;9.174;2023-06-14T00:59:08;12.90;95.80
48744;DHT22;34538;48.836;9.174;2023-06-14T01:01:36;12.90;95.80
48744;DHT22;34538;48.836;9.174;2023-06-14T01:04:04;12.80;95.70
48744;DHT22;34538;48.836;9.174;2023-06-14T01:06:35;12.80;95.80
48744;DHT22;34538;48.836;9.174;2023-06-14T01:09:13;12.80;95.80
48744;DHT22;34538;48.836;9.174;2023-06-14T01:11:49;12.70;95.70
48744;DHT22;34538;48.836;9.174;2023-06-14T01:14:19;12.70;96.20
48744;DHT22;34538;48.836;9.174;2023-06-14T01:16:47;12.70;95.80
48744;DHT22;34538;48.836;9.174;2023-06-14T01:19:20;12.70;96.00
48744;DHT22;34538;48.836;9.174;2023-06-14T01:21:51;12.60;96.30
48744;DHT22;34538;48.836;9.174;2023-06-14T01:24:19;12.60;96.70
48744;DHT22;34538;48.836;9.174;2023-06-14T01:26:53;12.60;96.80
48744;DHT22;34538;48.836;9.174;2023-06-14T01:29:22;12.50;96.90
48744;DHT22;34538;48.836;9.174;2023-06-14T01:31:52;12.50;97.20
48744;DHT22;34538;48.836;9.174;2023-06-14T01:34:19;12.50;97.50
48744;DHT22;34538;48.836;9.174;2023-06-14T01:36:50;12.40;97.70
48744;DHT22;34538;48.836;9.174;2023-06-14T01:39:20;12.40;97.70
48744;DHT22;34538;48.836;9.174;2023-06-14T01:41:49;12.30;97.90
48744;DHT22;34538;48.836;9.174;2023-06-14T01:44:19;12.30;97.80
48744;DHT22;34538;48.836;9.174;2023-06-14T01:46:46;12.30;97.80
48744;DHT22;34538;48.836;9.174;2023-06-14T01:49:13;12.30;98.10
48744;DHT22;34538;48.836;9.174;2023-06-14T01:51:40;12.20;98.60
48744;DHT22;34538;48.836;9.174;2023-06-14T01:54:08;12.20;98.70
48744;DHT22;34538;48.836;9.174;2023-06-14T01:56:36;12.10;98.80
48744;DHT22;34538;48.836;9.174;2023-06-14T01:59:03;12.10;98.80
48744;DHT22;34538;48.836;9.174;2023-06-14T02:01:30;12.10;99.20
48744;DHT22;34538;48.836;9.174;2023-06-14T02:04:01;12.10;98.90
48744;DHT22;34538;48.836;9.174;2023-06-14T02:06:28;12.00;98.90
48744;DHT22;34538;48.836;9.174;2023-06-14T02:08:55;12.10;98.80
48744;DHT22;34538;48.836;9.174;2023-06-14T02:11:21;12.00;99.40
48744;DHT22;34538;48.836;9.174;2023-06-14T02:13:51;12.00;99.80
48744;DHT22;34538;48.836;9.174;2023-06-14T02:16:18;12.00;99.90
48744;DHT22;34538;48.836;9.174;2023-06-14T02:18:45;11.90;99.80
48744;DHT22;34538;48.836;9.174;2023-06-14T02:21:11;11.90;99.80
48744;DHT22;34538;48.836;9.174;2023-06-14T02:23:38;11.90;99.90
48744;DHT22;34538;48.836;9.174;2023-06-14T02:26:05;11.80;99.90
48744;DHT22;34538;48.836;9.174;2023-06-14T02:28:34;11.90;99.90
48744;DHT22;34538;48.836;9.174;2023-06-14T02:31:02;11.80;99.90
48744;DHT22;34538;48.836;9.174;2023-06-14T02:33:29;11.80;99.90
48744;DHT22;34538;48.836;9.174;2023-06-14T02:35:56;11.70;99.90
48744;DHT22;34538;48.836;9.174;2023-06-14T02:38:23;11.70;99.90
48744;DHT22;34538;48.836;9.174;2023-06-14T02:40:49;11.70;99.90
48744;DHT22;34538;48.836;9.174;2023-06-14T02:43:16;11.70;99.90
48744;DHT22;34538;48.836;9.174;2023-06-14T02:45:43;11.70;99.90
48744;DHT22;34538;48.836;9.174;2023-06-14T02:48:11;11.70;99.90
48744;DHT22;34538;48.836;9.174;2023-06-14T02:50:40;11.70;99.90
48744;DHT22;34538;48.836;9.174;2023-06-14T02:53:07;11.60;99.90
48744;DHT22;34538;48.836;9.174;2023-06-14T02:55:34;11.60;99.90
48744;DHT22;34538;48.836;9.174;2023-06-14T02:58:06;11.60;99.90
48744;DHT22;34538;48.836;9.174;2023-06-14T03:00:33;11.50;99.90
48744;DHT22;34538;48.836;9.174;2023-06-14T03:03:01;11.60;99.90
48744;DHT22;34538;48.836;9.174;2023-06-14T03:05:29;11.50;99.90
48744;DHT22;34538;48.836;9.174;2023-06-14T03:07:56;11.40;99.90
48744;DHT22;34538;48.836;9.174;2023-06-14T03:10:23;11.40;99.90
48744;DHT22;34538;48.836;9.174;2023-06-14T03:12:55;11.40;99.90
48744;DHT22;34538;48.836;9.174;2023-06-14T03:15:22;11.40;99.90
48744;DHT22;34538;48.836;9.174;2023-06-14T03:17:50;11.40;99.90
48744;DHT22;34538;48.836;9.174;2023-06-14T03:20:20;11.40;99.90
48744;DHT22;34538;48.836;9.174;2023-06-14T03:22:48;11.40;99.90
48744;DHT22;34538;48.836;9.174;2023-06-14T03:25:16;11.40;99.90
48744;DHT22;34538;48.836;9.174;2023-06-14T03:27:46;11.40;99.90
48744;DHT22;34538;48.836;9.174;2023-06-14T03:30:14;11.40;99.90
48744;DHT22;34538;48.836;9.174;2023-06-14T03:32:43;11.40;99.90
48744;DHT22;34538;48.836;9.174;2023-06-14T03:35:10;11.40;99.90
48744;DHT22;34538;48.836;9.174;2023-06-14T03:37:42;11.40;99.90
48744;DHT22;34538;48.836;9.174;2023-06-14T03:40:13;11.40;99.90
48744;DHT22;34538;48.836;9.174;2023-06-14T03:42:41;11.40;99.90
48744;DHT22;34538;48.836;9.174;2023-06-14T03:45:09;11.40;99.90
48744;DHT22;34538;48.836;9.174;2023-06-14T03:47:36;11.30;99.90
48744;DHT22;34538;48.836;9.174;2023-06-14T03:50:04;11.30;99.90
48744;DHT22;34538;48.836;9.174;2023-06-14T03:52:31;11.40;99.90
48744;DHT22;34538;48.836;9.174;2023-06-14T03:54:59;11.40;99.90
48744;DHT22;34538;48.836;9.174;2023-06-14T03:57:29;11.40;99.90
48744;DHT22;34538;48.836;9.174;2023-06-14T03:59:57;11.40;99.90
48744;DHT22;34538;48.836;9.174;2023-06-14T04:02:25;11.50;99.90
48744;DHT22;34538;48.836;9.174;2023-06-14T04:04:54;11.50;99.90
48744;DHT22;34538;48.836;9.174;2023-06-14T04:07:21;11.60;99.90
48744;DHT22;34538;48.836;9.174;2023-06-14T04:09:49;11.70;99.90
48744;DHT22;34538;48.836;9.174;2023-06-14T04:12:15;11.80;99.90
48744;DHT22;34538;48.836;9.174;2023-06-14T04:14:44;12.00;99.90
48744;DHT22;34538;48.836;9.174;2023-06-14T04:17:11;12.20;99.90
48744;DHT22;34538;48.836;9.174;2023-06-14T04:19:42;12.40;99.90
48744;DHT22;34538;48.836;9.174;2023-06-14T04:22:09;12.50;99.90
48744;DHT22;34538;48.836;9.174;2023-06-14T04:24:37;12.70;99.90
48744;DHT22;34538;48.836;9.174;2023-06-14T04:27:04;12.80;99.90
48744;DHT22;34538;48.836;9.174;2023-06-14T04:29:32;12.90;99.90
48744;DHT22;34538;48.836;9.174;2023-06-14T04:32:05;13.10;99.90
48744;DHT22;34538;48.836;9.174;2023-06-14T04:34:37;13.20;99.90
48744;DHT22;34538;48.836;9.174;2023-06-14T04:37:05;13.30;99.90
48744;DHT22;34538;48.836;9.174;2023-06-14T04:39:40;13.40;99.90
48744;DHT22;34538;48.836;9.174;2023-06-14T04:42:08;13.60;99.90
48744;DHT22;34538;48.836;9.174;2023-06-14T04:44:37;13.70;99.90
48744;DHT22;34538;48.836;9.174;2023-06-14T04:47:07;13.80;99.90
48744;DHT22;34538;48.836;9.174;2023-06-14T04:49:35;14.00;99.90
48744;DHT22;34538;48.836;9.174;2023-06-14T04:52:02;14.10;99.90
48744;DHT22;34538;48.836;9.174;2023-06-14T04:54:38;14.30;99.60
48744;DHT22;34538;48.836;9.174;2023-06-14T04:57:10;14.60;99.00
48744;DHT22;34538;48.836;9.174;2023-06-14T04:59:39;14.90;98.40
48744;DHT22;34538;48.836;9.174;2023-06-14T05:02:08;15.20;97.80
48744;DHT22;34538;48.836;9.174;2023-06-14T05:04:35;15.40;96.50
48744;DHT22;34538;48.836;9.174;2023-06-14T05:07:06;15.60;96.20
48744;DHT22;34538;48.836;9.174;2023-06-14T05:09:33;15.70;95.50
48744;DHT22;34538;48.836;9.174;2023-06-14T05:12:00;15.70;95.90
48744;DHT22;34538;48.836;9.174;2023-06-14T05:14:27;15.90;96.20
48744;DHT22;34538;48.836;9.174;2023-06-14T05:16:55;16.00;95.60
48744;DHT22;34538;48.836;9.174;2023-06-14T05:19:24;16.20;95.20
48744;DHT22;34538;48.836;9.174;2023-06-14T05:21:51;16.30;95.30
48744;DHT22;34538;48.836;9.174;2023-06-14T05:24:18;16.50;94.80
48744;DHT22;34538;48.836;9.174;2023-06-14T05:26:45;16.70;94.40
48744;DHT22;34538;48.836;9.174;2023-06-14T05:29:12;16.90;93.90
48744;DHT22;34538;48.836;9.174;2023-06-14T05:31:39;17.20;93.10
48744;DHT22;34538;48.836;9.174;2023-06-14T05:34:06;17.20;92.70
48744;DHT22;34538;48.836;9.174;2023-06-14T05:36:34;17.40;92.70
48744;DHT22;34538;48.836;9.174;2023-06-14T05:39:02;17.50;92.10
48744;DHT22;34538;48.836;9.174;2023-06-14T05:41:30;17.70;92.10
48744;DHT22;34538;48.836;9.174;2023-06-14T05:43:57;17.80;92.20
48744;DHT22;34538;48.836;9.174;2023-06-14T05:46:25;17.80;91.80
48744;DHT22;34538;48.836;9.174;2023-06-14T05:48:52;17.90;91.50
48744;DHT22;34538;48.836;9.174;2023-06-14T05:51:19;18.20;91.00
48744;DHT22;34538;48.836;9.174;2023-06-14T05:53:48;18.40;90.60
48744;DHT22;34538;48.836;9.174;2023-06-14T05:56:16;18.50;90.50
48744;DHT22;34538;48.836;9.174;2023-06-14T05:58:44;18.60;90.30
48744;DHT22;34538;48.836;9.174;2023-06-14T06:01:11;18.70;90.80
48744;DHT22;34538;48.836;9.174;2023-06-14T06:03:38;18.70;90.50
48744;DHT22;34538;48.836;9.174;2023-06-14T06:06:05;18.70;90.80
48744;DHT22;34538;48.836;9.174;2023-06-14T06:08:33;18.70;90.80
48744;DHT22;34538;48.836;9.174;2023-06-14T06:11:02;18.70;90.50
48744;DHT22;34538;48.836;9.174;2023-06-14T06:13:29;18.80;90.70
48744;DHT22;34538;48.836;9.174;2023-06-14T06:15:55;18.80;91.00
48744;DHT22;34538;48.836;9.174;2023-06-14T06:18:22;18.90;90.40
48744;DHT22;34538;48.836;9.174;2023-06-14T06:20:49;18.80;88.40
48744;DHT22;34538;48.836;9.174;2023-06-14T06:23:16;18.80;89.70
48744;DHT22;34538;48.836;9.174;2023-06-14T06:25:43;18.80;90.20
48744;DHT22;34538;48.836;9.174;2023-06-14T06:28:12;19.00;87.80
48744;DHT22;34538;48.836;9.174;2023-06-14T06:30:39;19.10;88.10
48744;DHT22;34538;48.836;9.174;2023-06-14T06:33:05;19.40;87.70
48744;DHT22;34538;48.836;9.174;2023-06-14T06:35:32;19.50;88.60
48744;DHT22;34538;48.836;9.174;2023-06-14T06:37:59;19.60;87.50
48744;DHT22;34538;48.836;9.174;2023-06-14T06:40:27;19.60;85.90
48744;DHT22;34538;48.836;9.174;2023-06-14T06:42:54;19.50;84.90
48744;DHT22;34538;48.836;9.174;2023-06-14T06:45:22;19.30;82.70
48744;DHT22;34538;48.836;9.174;2023-06-14T06:47:50;19.10;84.20
48744;DHT22;34538;48.836;9.174;2023-06-14T06:50:18;19.10;86.10
48744;DHT22;34538;48.836;9.174;2023-06-14T06:52:45;19.00;85.40
48744;DHT22;34538;48.836;9.174;2023-06-14T06:55:12;19.10;86.20
48744;DHT22;34538;48.836;9.174;2023-06-14T06:57:39;19.10;86.10
48744;DHT22;34538;48.836;9.174;2023-06-14T07:00:07;19.10;85.50
48744;DHT22;34538;48.836;9.174;2023-06-14T07:02:36;19.20;86.40
48744;DHT22;34538;48.836;9.174;2023-06-14T07:05:03;19.20;85.30
48744;DHT22;34538;48.836;9.174;2023-06-14T07:07:31;19.20;84.80
48744;DHT22;34538;48.836;9.174;2023-06-14T07:09:58;19.00;85.50
48744;DHT22;34538;48.836;9.174;2023-06-14T07:12:25;19.10;86.70
48744;DHT22;34538;48.836;9.174;2023-06-14T07:14:52;19.10;87.70
48744;DHT22;34538;48.836;9.174;2023-06-14T07:17:19;19.10;86.40
48744;DHT22;34538;48.836;9.174;2023-06-14T07:19:47;19.20;85.30
48744;DHT22;34538;48.836;9.174;2023-06-14T07:22:15;19.20;87.40
48744;DHT22;34538;48.836;9.174;2023-06-14T07:24:43;19.30;86.70
48744;DHT22;34538;48.836;9.174;2023-06-14T07:27:10;19.20;87.40
48744;DHT22;34538;48.836;9.174;2023-06-14T07:29:38;19.20;87.00
48744;DHT22;34538;48.836;9.174;2023-06-14T07:32:06;19.20;86.70
48744;DHT22;34538;48.836;9.174;2023-06-14T07:34:33;19.20;86.30
48744;DHT22;34538;48.836;9.174;2023-06-14T07:37:01;19.10;86.30
48744;DHT22;34538;48.836;9.174;2023-06-14T07:39:28;19.10;86.90
48744;DHT22;34538;48.836;9.174;2023-06-14T07:41:55;19.20;87.20
48744;DHT22;34538;48.836;9.174;2023-06-14T07:44:22;19.20;87.10
48744;DHT22;34538;48.836;9.174;2023-06-14T07:46:48;19.30;89.30
48744;DHT22;34538;48.836;9.174;2023-06-14T07:49:16;19.40;88.10
48744;DHT22;34538;48.836;9.174;2023-06-14T07:51:43;19.40;86.10
48744;DHT22;34538;48.836;9.174;2023-06-14T07:54:13;19.40;86.80
48744;DHT22;34538;48.836;9.174;2023-06-14T07:56:40;19.40;88.30
48744;DHT22;34538;48.836;9.174;2023-06-14T07:59:06;19.40;87.80
48744;DHT22;34538;48.836;9.174;2023-06-14T08:01:34;19.50;88.50
48744;DHT22;34538;48.836;9.174;2023-06-14T08:04:01;19.70;88.70
48744;DHT22;34538;48.836;9.174;2023-06-14T08:06:30;19.70;86.70
48744;DHT22;34538;48.836;9.174;2023-06-14T08:08:59;19.80;86.30
48744;DHT22;34538;48.836;9.174;2023-06-14T08:11:27;19.80;86.10
48744;DHT22;34538;48.836;9.174;2023-06-14T08:13:54;19.90;85.70
48744;DHT22;34538;48.836;9.174;2023-06-14T08:16:22;19.90;86.50
48744;DHT22;34538;48.836;9.174;2023-06-14T08:18:48;20.00;85.60
48744;DHT22;34538;48.836;9.174;2023-06-14T08:21:15;20.00;86.20
48744;DHT22;34538;48.836;9.174;2023-06-14T08:23:43;20.20;84.90
48744;DHT22;34538;48.836;9.174;2023-06-14T08:26:10;20.30;86.20
48744;DHT22;34538;48.836;9.174;2023-06-14T08:28:41;20.40;85.40
48744;DHT22;34538;48.836;9.174;2023-06-14T08:31:08;20.40;84.10
48744;DHT22;34538;48.836;9.174;2023-06-14T08:33:35;20.40;84.60
48744;DHT22;34538;48.836;9.174;2023-06-14T08:36:02;20.40;85.00
48744;DHT22;34538;48.836;9.174;2023-06-14T08:38:29;20.50;84.60
48744;DHT22;34538;48.836;9.174;2023-06-14T08:40:57;20.60;84.90
48744;DHT22;34538;48.836;9.174;2023-06-14T08:43:24;20.60;83.70
48744;DHT22;34538;48.836;9.174;2023-06-14T08:45:58;20.70;85.90
48744;DHT22;34538;48.836;9.174;2023-06-14T08:48:26;20.70;84.90
48744;DHT22;34538;48.836;9.174;2023-06-14T08:50:54;20.70;84.40
48744;DHT22;34538;48.836;9.174;2023-06-14T08:53:28;20.80;84.30
48744;DHT22;34538;48.836;9.174;2023-06-14T08:55:58;20.80;84.20
48744;DHT22;34538;48.836;9.174;2023-06-14T08:58:27;21.00;85.70
48744;DHT22;34538;48.836;9.174;2023-06-14T09:00:58;21.10;82.20
48744;DHT22;34538;48.836;9.174;2023-06-14T09:03:26;21.20;83.80
48744;DHT22;34538;48.836;9.174;2023-06-14T09:05:56;21.20;83.30
48744;DHT22;34538;48.836;9.174;2023-06-14T09:08:25;21.30;86.20
48744;DHT22;34538;48.836;9.174;2023-06-14T09:10:53;21.40;83.10
48744;DHT22;34538;48.836;9.174;2023-06-14T09:13:20;21.50;83.90
48744;DHT22;34538;48.836;9.174;2023-06-14T09:15:47;21.60;83.80
48744;DHT22;34538;48.836;9.174;2023-06-14T09:18:16;21.60;83.10
48744;DHT22;34538;48.836;9.174;2023-06-14T09:20:44;21.60;82.90
48744;DHT22;34538;48.836;9.174;2023-06-14T09:23:12;21.70;83.70
48744;DHT22;34538;48.836;9.174;2023-06-14T09:25:42;21.80;82.90
48744;DHT22;34538;48.836;9.174;2023-06-14T09:28:09;21.80;81.00
48744;DHT22;34538;48.836;9.174;2023-06-14T09:30:37;21.80;82.60
48744;DHT22;34538;48.836;9.174;2023-06-14T09:33:05;21.90;82.70
48744;DHT22;34538;48.836;9.174;2023-06-14T09:35:34;22.00;81.80
48744;DHT22;34538;48.836;9.174;2023-06-14T09:38:02;22.10;81.20
48744;DHT22;34538;48.836;9.174;2023-06-14T09:40:34;22.30;83.10
48744;DHT22;34538;48.836;9.174;2023-06-14T09:43:03;22.40;82.40
48744;DHT22;34538;48.836;9.174;2023-06-14T09:45:31;22.40;82.00
48744;DHT22;34538;48.836;9.174;2023-06-14T09:47:58;22.50;79.80
48744;DHT22;34538;48.836;9.174;2023-06-14T09:50:25;22.50;79.80
48744;DHT22;34538;48.836;9.174;2023-06-14T09:53:00;22.40;80.60
48744;DHT22;34538;48.836;9.174;2023-06-14T09:55:31;22.60;79.80
48744;DHT22;34538;48.836;9.174;2023-06-14T09:58:04;22.70;78.80
48744;DHT22;34538;48.836;9.174;2023-06-14T10:00:32;22.80;78.70
48744;DHT22;34538;48.836;9.174;2023-06-14T10:03:05;23.00;77.70
48744;DHT22;34538;48.836;9.174;2023-06-14T10:05:35;23.10;78.50
48744;DHT22;34538;48.836;9.174;2023-06-14T10:08:08;23.20;78.10
48744;DHT22;34538;48.836;9.174;2023-06-14T10:10:37;23.20;79.10
48744;DHT22;34538;48.836;9.174;2023-06-14T10:13:05;23.10;76.40
48744;DHT22;34538;48.836;9.174;2023-06-14T10:15:41;22.90;76.30
48744;DHT22;34538;48.836;9.174;2023-06-14T10:18:13;22.80;76.50
48744;DHT22;34538;48.836;9.174;2023-06-14T10:20:53;22.70;76.00
48744;DHT22;34538;48.836;9.174;2023-06-14T10:23:24;22.80;77.10
48744;DHT22;34538;48.836;9.174;2023-06-14T10:25:56;22.90;74.20
48744;DHT22;34538;48.836;9.174;2023-06-14T10:28:23;23.20;74.40
48744;DHT22;34538;48.836;9.174;2023-06-14T10:31:13;23.30;73.60
48744;DHT22;34538;48.836;9.174;2023-06-14T10:33:49;23.40;73.20
48744;DHT22;34538;48.836;9.174;2023-06-14T10:36:27;23.50;73.10
48744;DHT22;34538;48.836;9.174;2023-06-14T10:39:04;23.50;74.00
48744;DHT22;34538;48.836;9.174;2023-06-14T10:41:35;23.50;74.30
48744;DHT22;34538;48.836;9.174;2023-06-14T10:46:49;23.20;73.50
48744;DHT22;34538;48.836;9.174;2023-06-14T10:49:17;23.20;73.00
48744;DHT22;34538;48.836;9.174;2023-06-14T10:51:46;23.20;72.00
48744;DHT22;34538;48.836;9.174;2023-06-14T10:54:20;23.30;71.30
48744;DHT22;34538;48.836;9.174;2023-06-14T10:56:51;23.40;71.30
48744;DHT22;34538;48.836;9.174;2023-06-14T10:59:19;23.50;71.40
48744;DHT22;34538;48.836;9.174;2023-06-14T11:01:57;23.70;70.90
48744;DHT22;34538;48.836;9.174;2023-06-14T11:04:34;23.90;68.80
48744;DHT22;34538;48.836;9.174;2023-06-14T11:07:27;23.90;67.80
48744;DHT22;34538;48.836;9.174;2023-06-14T11:10:14;24.00;69.60
48744;DHT22;34538;48.836;9.174;2023-06-14T11:12:47;24.20;69.20
48744;DHT22;34538;48.836;9.174;2023-06-14T11:15:15;24.30;70.80
48744;DHT22;34538;48.836;9.174;2023-06-14T11:17:50;24.30;68.10
48744;DHT22;34538;48.836;9.174;2023-06-14T11:20:19;24.20;68.80
48744;DHT22;34538;48.836;9.174;2023-06-14T11:22:47;24.30;69.80
48744;DHT22;34538;48.836;9.174;2023-06-14T11:25:16;24.30;67.50
48744;DHT22;34538;48.836;9.174;2023-06-14T11:27:44;24.30;67.30
48744;DHT22;34538;48.836;9.174;2023-06-14T11:30:13;24.30;68.10
48744;DHT22;34538;48.836;9.174;2023-06-14T11:32:40;24.40;68.90
48744;DHT22;34538;48.836;9.174;2023-06-14T11:35:08;24.40;68.50
48744;DHT22;34538;48.836;9.174;2023-06-14T11:37:36;24.40;67.90
48744;DHT22;34538;48.836;9.174;2023-06-14T11:40:07;24.40;67.70
48744;DHT22;34538;48.836;9.174;2023-06-14T11:42:37;24.20;66.90
48744;DHT22;34538;48.836;9.174;2023-06-14T11:45:08;23.90;67.90
48744;DHT22;34538;48.836;9.174;2023-06-14T11:47:35;23.80;66.90
48744;DHT22;34538;48.836;9.174;2023-06-14T11:50:05;23.70;67.50
48744;DHT22;34538;48.836;9.174;2023-06-14T11:52:32;23.60;67.00
48744;DHT22;34538;48.836;9.174;2023-06-14T11:55:00;23.60;67.80
48744;DHT22;34538;48.836;9.174;2023-06-14T11:57:30;23.80;70.20
48744;DHT22;34538;48.836;9.174;2023-06-14T11:59:59;23.80;67.50
48744;DHT22;34538;48.836;9.174;2023-06-14T12:02:26;24.00;68.20
48744;DHT22;34538;48.836;9.174;2023-06-14T12:04:54;24.00;68.00
48744;DHT22;34538;48.836;9.174;2023-06-14T12:07:23;24.00;67.70
48744;DHT22;34538;48.836;9.174;2023-06-14T12:10:08;23.80;68.10
48744;DHT22;34538;48.836;9.174;2023-06-14T12:12:37;23.80;69.50
48744;DHT22;34538;48.836;9.174;2023-06-14T12:15:07;23.80;69.10
48744;DHT22;34538;48.836;9.174;2023-06-14T12:17:37;23.90;68.40
48744;DHT22;34538;48.836;9.174;2023-06-14T12:20:08;24.10;67.30
48744;DHT22;34538;48.836;9.174;2023-06-14T12:22:46;24.30;67.00
48744;DHT22;34538;48.836;9.174;2023-06-14T12:25:24;24.60;67.10
48744;DHT22;34538;48.836;9.174;2023-06-14T12:27:54;24.60;66.10
48744;DHT22;34538;48.836;9.174;2023-06-14T12:30:22;24.60;67.10
48744;DHT22;34538;48.836;9.174;2023-06-14T12:32:49;24.70;66.50
48744;DHT22;34538;48.836;9.174;2023-06-14T12:35:17;24.60;67.00
48744;DHT22;34538;48.836;9.174;2023-06-14T12:37:45;24.80;67.80
48744;DHT22;34538;48.836;9.174;2023-06-14T12:40:12;25.00;65.80
48744;DHT22;34538;48.836;9.174;2023-06-14T12:42:40;25.40;66.20
48744;DHT22;34538;48.836;9.174;2023-06-14T12:45:09;25.70;65.50
48744;DHT22;34538;48.836;9.174;2023-06-14T12:47:38;26.00;64.70
48744;DHT22;34538;48.836;9.174;2023-06-14T12:50:06;26.10;64.70
48744;DHT22;34538;48.836;9.174;2023-06-14T12:52:34;25.90;64.00
48744;DHT22;34538;48.836;9.174;2023-06-14T12:55:04;25.50;63.70
48744;DHT22;34538;48.836;9.174;2023-06-14T12:57:32;25.10;64.00
48744;DHT22;34538;48.836;9.174;2023-06-14T13:00:03;24.90;65.00
48744;DHT22;34538;48.836;9.174;2023-06-14T13:02:33;24.90;67.00
48744;DHT22;34538;48.836;9.174;2023-06-14T13:05:02;25.00;65.70
48744;DHT22;34538;48.836;9.174;2023-06-14T13:07:30;25.20;64.70
48744;DHT22;34538;48.836;9.174;2023-06-14T13:09:58;25.40;66.00
48744;DHT22;34538;48.836;9.174;2023-06-14T13:12:25;25.50;65.20
48744;DHT22;34538;48.836;9.174;2023-06-14T13:14:52;25.50;66.00
48744;DHT22;34538;48.836;9.174;2023-06-14T13:17:19;25.60;65.60
48744;DHT22;34538;48.836;9.174;2023-06-14T13:19:47;25.50;64.90
48744;DHT22;34538;48.836;9.174;2023-06-14T13:22:16;25.50;64.80
48744;DHT22;34538;48.836;9.174;2023-06-14T13:24:43;25.50;63.60
48744;DHT22;34538;48.836;9.174;2023-06-14T13:27:10;25.40;64.50
48744;DHT22;34538;48.836;9.174;2023-06-14T13:29:39;25.40;65.60
48744;DHT22;34538;48.836;9.174;2023-06-14T13:32:07;25.40;64.50
48744;DHT22;34538;48.836;9.174;2023-06-14T13:34:34;25.30;65.00
48744;DHT22;34538;48.836;9.174;2023-06-14T13:37:02;25.30;63.90
48744;DHT22;34538;48.836;9.174;2023-06-14T13:39:30;25.20;65.20
48744;DHT22;34538;48.836;9.174;2023-06-14T13:41:57;25.00;64.60
48744;DHT22;34538;48.836;9.174;2023-06-14T13:44:24;25.00;65.70
48744;DHT22;34538;48.836;9.174;2023-06-14T13:46:52;25.00;66.60
48744;DHT22;34538;48.836;9.174;2023-06-14T13:49:19;24.90;64.80
48744;DHT22;34538;48.836;9.174;2023-06-14T13:51:46;24.70;64.30
48744;DHT22;34538;48.836;9.174;2023-06-14T13:54:14;24.80;65.60
48744;DHT22;34538;48.836;9.174;2023-06-14T13:56:43;24.70;65.50
48744;DHT22;34538;48.836;9.174;2023-06-14T13:59:10;24.60;64.60
48744;DHT22;34538;48.836;9.174;2023-06-14T14:01:37;24.40;66.60
48744;DHT22;34538;48.836;9.174;2023-06-14T14:04:05;24.30;67.00
48744;DHT22;34538;48.836;9.174;2023-06-14T14:06:32;24.20;67.90
48744;DHT22;34538;48.836;9.174;2023-06-14T14:08:59;24.10;68.20
48744;DHT22;34538;48.836;9.174;2023-06-14T14:11:27;24.20;68.50
48744;DHT22;34538;48.836;9.174;2023-06-14T14:14:00;24.30;68.60
48744;DHT22;34538;48.836;9.174;2023-06-14T14:16:28;24.40;66.10
48744;DHT22;34538;48.836;9.174;2023-06-14T14:18:56;24.40;67.80
48744;DHT22;34538;48.836;9.174;2023-06-14T14:21:24;24.50;66.70
48744;DHT22;34538;48.836;9.174;2023-06-14T14:23:51;24.40;67.30
48744;DHT22;34538;48.836;9.174;2023-06-14T14:26:19;24.40;67.20
48744;DHT22;34538;48.836;9.174;2023-06-14T14:28:46;24.40;68.50
48744;DHT22;34538;48.836;9.174;2023-06-14T14:31:15;24.60;67.70
48744;DHT22;34538;48.836;9.174;2023-06-14T14:33:41;24.70;66.90
48744;DHT22;34538;48.836;9.174;2023-06-14T14:36:09;24.90;67.50
48744;DHT22;34538;48.836;9.174;2023-06-14T14:38:36;25.10;66.90
48744;DHT22;34538;48.836;9.174;2023-06-14T14:41:03;25.30;65.20
48744;DHT22;34538;48.836;9.174;2023-06-14T14:43:30;25.50;66.70
48744;DHT22;34538;48.836;9.174;2023-06-14T14:45:57;25.50;66.00
48744;DHT22;34538;48.836;9.174;2023-06-14T14:48:26;25.50;65.30
48744;DHT22;34538;48.836;9.174;2023-06-14T14:50:52;25.50;65.50
48744;DHT22;34538;48.836;9.174;2023-06-14T14:53:19;25.20;65.80
48744;DHT22;34538;48.836;9.174;2023-06-14T14:55:46;25.10;66.40
48744;DHT22;34538;48.836;9.174;2023-06-14T14:58:13;24.90;66.60
48744;DHT22;34538;48.836;9.174;2023-06-14T15:00:43;24.80;67.30
48744;DHT22;34538;48.836;9.174;2023-06-14T15:03:10;24.70;67.90
48744;DHT22;34538;48.836;9.174;2023-06-14T15:05:38;24.60;67.20
48744;DHT22;34538;48.836;9.174;2023-06-14T15:08:05;24.40;66.90
48744;DHT22;34538;48.836;9.174;2023-06-14T15:10:37;24.50;67.60
48744;DHT22;34538;48.836;9.174;2023-06-14T15:13:06;24.70;66.80
48744;DHT22;34538;48.836;9.174;2023-06-14T15:15:33;24.90;67.00
48744;DHT22;34538;48.836;9.174;2023-06-14T15:18:00;25.20;65.60
48744;DHT22;34538;48.836;9.174;2023-06-14T15:20:27;25.50;66.20
48744;DHT22;34538;48.836;9.174;2023-06-14T15:22:55;25.70;65.60
48744;DHT22;34538;48.836;9.174;2023-06-14T15:25:25;25.80;66.10
48744;DHT22;34538;48.836;9.174;2023-06-14T15:27:52;25.50;65.70
48744;DHT22;34538;48.836;9.174;2023-06-14T15:30:19;25.30;66.00
48744;DHT22;34538;48.836;9.174;2023-06-14T15:32:46;25.10;66.20
48744;DHT22;34538;48.836;9.174;2023-06-14T15:35:13;24.90;66.20
48744;DHT22;34538;48.836;9.174;2023-06-14T15:37:40;24.70;65.60
48744;DHT22;34538;48.836;9.174;2023-06-14T15:40:09;24.80;65.70
48744;DHT22;34538;48.836;9.174;2023-06-14T15:42:36;24.80;66.30